Time;durP1;ratioP1;P1;durP2;ratioP2;P2;SDS_P1;SDS_P2;PMS_P1;PMS_P2;Temp;Humidity;BMP_temperature;BMP_pressure;BME280_temperature;BME280_humidity;BME280_pressure;Samples;Min_cycle;Max_cycle;Signal;HPM_P1;HPM_P2
2022/12/05 00:02:05;;;;;;;0.03;0.03;;;;;;;2.00;100.00;98524.75;4968054;28;20237;-62
2022/12/05 00:04:32;;;;;;;0.00;0.00;;;;;;;2.06;100.00;98526.94;4964382;28;20570;-63
2022/12/05 00:06:58;;;;;;;0.00;0.00;;;;;;;2.07;100.00;98533.75;4972963;28;20698;-63
2022/12/05 00:09:27;;;;;;;0.07;0.07;;;;;;;2.03;100.00;98535.66;4972005;28;20229;-62
2022/12/05 00:11:53;;;;;;;0.00;0.00;;;;;;;1.99;100.00;98541.94;4965362;28;20704;-63
2022/12/05 00:14:23;;;;;;;0.00;0.00;;;;;;;2.02;100.00;98523.72;4925160;28;20244;-63
2022/12/05 00:16:50;;;;;;;0.00;0.00;;;;;;;2.01;100.00;98534.94;4966095;28;20252;-63
2022/12/05 00:19:18;;;;;;;0.00;0.00;;;;;;;2.12;100.00;98531.66;4971292;28;20301;-63
2022/12/05 00:21:46;;;;;;;0.00;0.00;;;;;;;2.04;100.00;98532.19;4968593;28;20724;-63
2022/12/05 00:24:15;;;;;;;0.10;0.10;;;;;;;2.12;100.00;98530.84;4969122;28;20225;-63
2022/12/05 00:26:42;;;;;;;0.00;0.00;;;;;;;2.05;100.00;98536.41;4967942;28;20241;-63
2022/12/05 00:29:11;;;;;;;0.07;0.07;;;;;;;2.05;100.00;98533.81;4973350;28;20229;-63
2022/12/05 00:31:38;;;;;;;0.03;0.03;;;;;;;2.05;100.00;98533.81;4970052;28;20240;-63
2022/12/05 00:34:09;;;;;;;0.00;0.00;;;;;;;2.10;100.00;98536.13;4965319;28;20236;-63
2022/12/05 00:36:41;;;;;;;0.10;0.10;;;;;;;2.08;100.00;98532.81;4944142;28;20232;-63
2022/12/05 00:39:16;;;;;;;0.00;0.00;;;;;;;2.12;100.00;98536.00;4972565;28;20228;-64
2022/12/05 00:41:54;;;;;;;0.00;0.00;;;;;;;2.04;100.00;98537.31;4965154;28;20247;-64
2022/12/05 00:44:21;;;;;;;0.00;0.00;;;;;;;2.06;100.00;98540.63;4985892;28;20587;-64
2022/12/05 00:46:47;;;;;;;0.03;0.03;;;;;;;2.03;100.00;98535.66;4968647;28;20233;-64
2022/12/05 00:49:14;;;;;;;0.10;0.10;;;;;;;2.05;100.00;98522.72;4944377;28;20231;-64
2022/12/05 00:51:43;;;;;;;0.00;0.00;;;;;;;2.01;100.00;98527.22;4960293;28;20609;-64
2022/12/05 00:54:13;;;;;;;0.00;0.00;;;;;;;2.00;100.00;98524.75;4982297;28;20240;-64
2022/12/05 00:56:40;;;;;;;0.00;0.00;;;;;;;2.01;100.00;98516.13;4971859;28;20244;-64
2022/12/05 00:59:08;;;;;;;0.10;0.10;;;;;;;1.97;100.00;98519.81;4970288;28;20233;-64
2022/12/05 01:01:36;;;;;;;0.00;0.00;;;;;;;1.98;100.00;98513.72;4973061;28;20249;-64
2022/12/05 01:04:05;;;;;;;0.00;0.00;;;;;;;1.98;100.00;98516.31;4973157;28;20244;-64
2022/12/05 01:06:34;;;;;;;0.10;0.10;;;;;;;2.00;100.00;98515.28;4975412;28;20802;-63
2022/12/05 01:09:13;;;;;;;0.10;0.10;;;;;;;2.00;100.00;98520.41;4868580;28;20609;-63
2022/12/05 01:11:40;;;;;;;0.00;0.00;;;;;;;2.02;100.00;98528.06;4941142;28;20235;-64
2022/12/05 01:14:09;;;;;;;0.00;0.00;;;;;;;2.04;100.00;98534.75;4977742;28;20768;-64
2022/12/05 01:16:39;;;;;;;0.10;0.10;;;;;;;2.01;100.00;98534.94;4971428;28;20229;-64
2022/12/05 01:19:09;;;;;;;0.00;0.00;;;;;;;2.04;100.00;98542.47;4973814;28;20229;-62
2022/12/05 01:21:35;;;;;;;0.00;0.00;;;;;;;2.00;100.00;98538.44;4963638;28;20232;-62
2022/12/05 01:24:10;;;;;;;0.00;0.00;;;;;;;2.04;100.00;98541.66;4956295;28;20244;-62
2022/12/05 01:26:37;;;;;;;0.00;0.00;;;;;;;2.06;100.00;98542.38;4971458;28;20225;-63
2022/12/05 01:29:04;;;;;;;0.00;0.00;;;;;;;2.07;100.00;98544.03;4971655;28;20237;-62
2022/12/05 01:31:34;;;;;;;0.00;0.00;;;;;;;2.06;100.00;98547.53;4970536;28;20755;-63
2022/12/05 01:34:02;;;;;;;0.00;0.00;;;;;;;2.05;100.00;98554.41;4971870;28;20250;-63
2022/12/05 01:36:29;;;;;;;0.10;0.10;;;;;;;2.03;100.00;98550.31;4975469;28;20226;-63
2022/12/05 01:38:56;;;;;;;0.00;0.00;;;;;;;1.99;100.00;98539.38;4970680;28;20240;-63
2022/12/05 01:41:27;;;;;;;0.10;0.10;;;;;;;2.01;100.00;98536.72;4989317;28;20283;-62
2022/12/05 01:43:58;;;;;;;0.00;0.00;;;;;;;2.00;100.00;98530.72;4968518;28;20229;-63
2022/12/05 01:46:25;;;;;;;0.00;0.00;;;;;;;1.98;100.00;98531.75;4976871;28;20625;-63
2022/12/05 01:48:55;;;;;;;0.00;0.00;;;;;;;2.00;100.00;98535.06;4978193;28;21394;-62
2022/12/05 01:51:23;;;;;;;0.00;0.00;;;;;;;2.03;100.00;98545.16;4985240;28;20237;-63
2022/12/05 01:53:49;;;;;;;0.00;0.00;;;;;;;2.09;100.00;98552.50;4980399;28;20756;-63
2022/12/05 01:56:17;;;;;;;0.00;0.00;;;;;;;2.11;100.00;98555.78;4983677;28;20691;-63
2022/12/05 01:58:45;;;;;;;0.00;0.00;;;;;;;2.12;100.00;98559.19;4981211;28;20236;-63
2022/12/05 02:01:15;;;;;;;0.00;0.00;;;;;;;2.13;100.00;98558.25;4983983;28;20595;-63
2022/12/05 02:03:44;;;;;;;0.00;0.00;;;;;;;2.10;100.00;98567.03;4980511;28;20235;-63
2022/12/05 02:06:13;;;;;;;0.10;0.10;;;;;;;2.13;100.00;98579.66;4985084;28;20700;-63
2022/12/05 02:08:43;;;;;;;0.00;0.00;;;;;;;2.15;100.00;98582.16;4983603;28;20287;-63
2022/12/05 02:11:10;;;;;;;0.10;0.10;;;;;;;2.20;100.00;98580.94;4983609;28;20253;-62
2022/12/05 02:13:58;;;;;;;0.00;0.00;;;;;;;2.10;100.00;98581.63;4981367;28;20272;-63
2022/12/05 02:16:36;;;;;;;0.07;0.07;;;;;;;2.09;100.00;98588.53;4984777;28;20287;-63
2022/12/05 02:19:41;;;;;;;0.10;0.10;;;;;;;2.12;100.00;98593.47;4983537;28;20233;-63
2022/12/05 02:22:47;;;;;;;0.10;0.10;;;;;;;2.16;100.00;98592.34;4957673;28;20236;-63
2022/12/05 02:25:41;;;;;;;0.07;0.07;;;;;;;2.18;100.00;98594.84;4979813;28;21948;-63
2022/12/05 02:28:30;;;;;;;0.03;0.03;;;;;;;2.13;100.00;98592.53;4982854;28;20724;-63
2022/12/05 02:31:02;;;;;;;0.00;0.00;;;;;;;2.21;100.00;98604.94;4981057;28;20241;-63
2022/12/05 02:33:36;;;;;;;0.00;0.00;;;;;;;2.17;100.00;98612.03;4986714;28;20229;-63
2022/12/05 02:36:07;;;;;;;0.00;0.00;;;;;;;2.19;100.00;98609.38;4982618;28;20235;-63
2022/12/05 02:38:39;;;;;;;0.10;0.10;;;;;;;2.29;100.00;98602.72;4981834;28;20586;-63
2022/12/05 02:41:16;;;;;;;0.00;0.00;;;;;;;2.27;100.00;98601.13;4985686;28;20862;-63
2022/12/05 02:43:51;;;;;;;0.00;0.00;;;;;;;2.36;100.00;98597.97;4979422;28;20873;-63
2022/12/05 02:46:22;;;;;;;0.00;0.00;;;;;;;2.30;100.00;98596.63;4983483;28;20213;-63
2022/12/05 02:48:54;;;;;;;0.07;0.07;;;;;;;2.33;100.00;98601.59;4983547;28;20221;-64
2022/12/05 02:51:24;;;;;;;0.00;0.00;;;;;;;2.35;100.00;98612.63;4984287;28;20233;-63
2022/12/05 02:53:52;;;;;;;0.10;0.10;;;;;;;2.42;100.00;98601.91;4981639;28;20225;-62
2022/12/05 02:56:19;;;;;;;0.00;0.00;;;;;;;2.39;100.00;98600.34;4985136;28;20232;-63
2022/12/05 02:58:52;;;;;;;0.00;0.00;;;;;;;2.42;100.00;98599.34;4982796;28;20728;-62
2022/12/05 03:01:23;;;;;;;0.00;0.00;;;;;;;2.42;100.00;98592.41;4985001;28;20233;-63
2022/12/05 03:03:50;;;;;;;0.10;0.10;;;;;;;2.37;100.00;98599.63;4983251;28;20713;-62
2022/12/05 03:06:23;;;;;;;0.07;0.07;;;;;;;2.48;100.00;98597.19;4983260;28;20221;-62
2022/12/05 03:08:55;;;;;;;0.00;0.00;;;;;;;2.51;100.00;98591.00;4982765;28;20235;-63
2022/12/05 03:11:22;;;;;;;0.10;0.10;;;;;;;2.49;100.00;98583.38;4984345;28;20225;-62
2022/12/05 03:13:52;;;;;;;0.00;0.00;;;;;;;2.49;100.00;98590.28;4981647;28;20229;-64
2022/12/05 03:16:26;;;;;;;0.07;0.07;;;;;;;2.51;100.00;98602.13;4981780;28;20284;-62
2022/12/05 03:18:59;;;;;;;0.07;0.07;;;;;;;2.55;100.00;98594.19;4980956;28;20302;-63
2022/12/05 03:21:34;;;;;;;0.00;0.00;;;;;;;2.55;100.00;98586.47;4983222;28;20229;-63
2022/12/05 03:24:05;;;;;;;0.00;0.00;;;;;;;2.51;100.00;98589.25;4979538;28;20259;-63
2022/12/05 03:26:42;;;;;;;0.10;0.10;;;;;;;2.44;100.00;98588.00;4995512;28;20224;-63
2022/12/05 03:29:22;;;;;;;0.03;0.03;;;;;;;2.37;100.00;98581.59;4981001;28;20221;-63
2022/12/05 03:31:59;;;;;;;0.10;0.10;;;;;;;2.36;100.00;98575.63;4981577;28;20217;-62
2022/12/05 03:34:35;;;;;;;0.00;0.00;;;;;;;2.30;100.00;98577.75;4981739;28;20744;-63
2022/12/05 03:37:07;;;;;;;0.00;0.00;;;;;;;2.28;100.00;98575.28;4978175;28;20243;-63
2022/12/05 03:39:37;;;;;;;0.00;0.00;;;;;;;2.27;100.00;98567.66;4980765;28;20228;-63
2022/12/05 03:42:13;;;;;;;0.00;0.00;;;;;;;2.25;100.00;98575.50;4981683;28;20240;-63
2022/12/05 03:44:48;;;;;;;0.00;0.00;;;;;;;2.23;100.00;98577.34;4982284;28;20279;-63
2022/12/05 03:47:21;;;;;;;0.10;0.10;;;;;;;2.21;100.00;98580.00;4983372;28;20232;-63
2022/12/05 03:49:51;;;;;;;0.00;0.00;;;;;;;2.18;100.00;98572.47;4983076;28;20712;-63
2022/12/05 03:52:23;;;;;;;0.10;0.10;;;;;;;2.15;100.00;98571.84;4982265;28;20772;-63
2022/12/05 03:54:55;;;;;;;0.00;0.00;;;;;;;2.11;100.00;98573.81;4981350;28;20240;-63
2022/12/05 03:57:27;;;;;;;0.00;0.00;;;;;;;2.05;100.00;98572.44;4981349;28;21004;-63
2022/12/05 03:59:58;;;;;;;0.10;0.10;;;;;;;2.06;100.00;98573.28;4981458;28;20737;-63
2022/12/05 04:05:25;;;;;;;0.00;0.00;;;;;;;2.05;100.00;98592.22;5124995;23;20232;-62
2022/12/05 04:07:59;;;;;;;0.10;0.10;;;;;;;2.06;100.00;98586.97;4948004;28;20319;-61
2022/12/05 04:10:29;;;;;;;0.00;0.00;;;;;;;2.10;100.00;98589.34;4975400;28;20232;-60
2022/12/05 04:13:16;;;;;;;0.00;0.00;;;;;;;2.13;100.00;98602.03;4979655;28;20260;-61
2022/12/05 04:18:34;;;;;;;0.00;0.00;;;;;;;2.16;100.00;98600.06;4987586;28;20228;-60
2022/12/05 04:25:31;;;;;;;0.10;0.10;;;;;;;2.22;100.00;98607.41;4947417;28;20658;-61
2022/12/05 04:26:39;;;;;;;0.00;0.00;;;;;;;2.24;100.00;98612.47;4984889;28;20370;-61
2022/12/05 04:29:11;;;;;;;0.00;0.00;;;;;;;2.24;100.00;98599.59;4988337;28;20217;-61
2022/12/05 04:31:42;;;;;;;0.00;0.00;;;;;;;2.19;100.00;98606.78;5219721;23;20252;-64
2022/12/05 04:34:14;;;;;;;0.00;0.00;;;;;;;2.18;100.00;98608.53;4986921;28;20749;-64
2022/12/05 04:36:44;;;;;;;0.00;0.00;;;;;;;2.18;100.00;98612.88;4977990;28;20232;-64
2022/12/05 04:39:16;;;;;;;0.00;0.00;;;;;;;2.18;100.00;98616.25;4988102;28;20272;-64
2022/12/05 04:41:48;;;;;;;0.10;0.10;;;;;;;2.21;100.00;98612.66;4986596;28;21131;-64
2022/12/05 04:44:18;;;;;;;0.00;0.00;;;;;;;2.19;100.00;98617.91;4976301;28;20248;-64
2022/12/05 04:46:47;;;;;;;0.00;0.00;;;;;;;2.21;100.00;98616.06;4985041;28;20716;-64
2022/12/05 04:49:19;;;;;;;0.00;0.00;;;;;;;2.24;100.00;98620.19;4970642;28;20732;-64
2022/12/05 04:51:50;;;;;;;0.10;0.10;;;;;;;2.21;100.00;98622.97;4966577;28;20665;-63
2022/12/05 04:54:21;;;;;;;0.00;0.00;;;;;;;2.22;100.00;98630.59;4967912;28;20245;-64
2022/12/05 04:56:52;;;;;;;0.00;0.00;;;;;;;2.21;100.00;98631.50;4985507;28;20236;-63
2022/12/05 04:59:18;;;;;;;0.00;0.00;;;;;;;2.22;100.00;98633.16;4988222;28;20233;-64
2022/12/05 05:01:51;;;;;;;0.10;0.10;;;;;;;2.24;100.00;98629.66;4986966;28;20241;-64
2022/12/05 05:04:21;;;;;;;0.10;0.10;;;;;;;2.23;100.00;98631.44;4972267;28;20225;-64
2022/12/05 05:06:49;;;;;;;0.07;0.07;;;;;;;2.26;100.00;98636.38;4965869;28;20625;-64
2022/12/05 05:09:15;;;;;;;0.10;0.10;;;;;;;2.25;100.00;98642.47;4982404;28;20241;-64
2022/12/05 05:11:42;;;;;;;0.00;0.00;;;;;;;2.28;100.00;98636.28;4976880;28;20260;-62
2022/12/05 05:14:09;;;;;;;0.10;0.10;;;;;;;2.27;100.00;98642.34;4967519;28;20756;-62
2022/12/05 05:16:38;;;;;;;0.00;0.00;;;;;;;2.27;100.00;98644.91;4983103;28;20236;-62
2022/12/05 05:19:05;;;;;;;0.10;0.10;;;;;;;2.18;100.00;98646.34;4988195;28;20236;-62
2022/12/05 05:21:34;;;;;;;0.00;0.00;;;;;;;2.17;100.00;98647.28;4986312;28;20693;-62
2022/12/05 05:24:04;;;;;;;0.10;0.10;;;;;;;2.15;100.00;98649.13;4984879;28;20233;-63
2022/12/05 05:26:33;;;;;;;0.10;0.10;;;;;;;2.16;100.00;98664.44;4988082;28;20279;-62
2022/12/05 05:28:59;;;;;;;0.00;0.00;;;;;;;2.18;100.00;98657.47;4967883;28;20230;-62
2022/12/05 05:31:32;;;;;;;0.07;0.07;;;;;;;2.15;100.00;98665.38;4974814;28;20240;-62
2022/12/05 05:33:58;;;;;;;0.00;0.00;;;;;;;2.16;100.00;98667.03;4984417;28;20231;-62
2022/12/05 05:36:27;;;;;;;0.07;0.07;;;;;;;2.19;100.00;98653.16;4988482;28;20734;-62
2022/12/05 05:38:56;;;;;;;0.10;0.10;;;;;;;2.17;100.00;98655.81;4983822;28;20234;-62
2022/12/05 05:41:26;;;;;;;0.00;0.00;;;;;;;2.18;100.00;98662.59;4987500;28;20597;-62
2022/12/05 05:43:54;;;;;;;0.00;0.00;;;;;;;2.16;100.00;98667.03;4968271;28;20245;-62
2022/12/05 05:46:22;;;;;;;0.10;0.10;;;;;;;2.19;100.00;98666.03;4974319;28;20221;-62
2022/12/05 05:48:49;;;;;;;0.00;0.00;;;;;;;2.24;100.00;98668.28;4984511;28;20680;-62
2022/12/05 05:51:17;;;;;;;0.10;0.10;;;;;;;2.22;100.00;98670.97;4986494;28;20229;-62
2022/12/05 05:53:44;;;;;;;0.10;0.10;;;;;;;2.24;100.00;98673.44;4977188;28;20292;-62
2022/12/05 05:56:12;;;;;;;0.07;0.07;;;;;;;2.22;100.00;98676.94;4977676;28;20702;-62
2022/12/05 05:58:40;;;;;;;0.00;0.00;;;;;;;2.19;100.00;98677.13;4984370;28;20233;-63
2022/12/05 06:01:09;;;;;;;0.00;0.00;;;;;;;2.21;100.00;98684.78;4986325;28;20232;-62
2022/12/05 06:03:36;;;;;;;0.00;0.00;;;;;;;2.17;100.00;98685.91;4984975;28;20229;-62
2022/12/05 06:06:06;;;;;;;0.10;0.10;;;;;;;2.17;100.00;98694.44;4986849;28;20239;-62
2022/12/05 06:08:33;;;;;;;0.00;0.00;;;;;;;2.19;100.00;98705.47;4986797;28;20279;-62
2022/12/05 06:11:00;;;;;;;0.00;0.00;;;;;;;2.20;100.00;98708.88;4985071;28;20240;-63
2022/12/05 06:13:27;;;;;;;0.00;0.00;;;;;;;2.21;100.00;98711.34;4986456;28;20232;-62
2022/12/05 06:15:54;;;;;;;0.07;0.07;;;;;;;2.21;100.00;98708.78;4984179;28;20237;-62
2022/12/05 06:18:21;;;;;;;0.00;0.00;;;;;;;2.23;100.00;98713.84;4986490;28;20697;-62
2022/12/05 06:20:52;;;;;;;0.10;0.10;;;;;;;2.25;100.00;98721.47;4984449;28;20745;-62
2022/12/05 06:23:18;;;;;;;0.10;0.10;;;;;;;2.21;100.00;98721.66;4985301;28;20229;-63
2022/12/05 06:25:47;;;;;;;0.10;0.10;;;;;;;2.23;100.00;98713.84;4983452;28;20233;-62
2022/12/05 06:28:14;;;;;;;0.10;0.10;;;;;;;2.18;100.00;98721.03;4985639;28;20261;-62
2022/12/05 06:30:40;;;;;;;0.07;0.07;;;;;;;2.12;100.00;98726.56;4984485;28;20236;-62
2022/12/05 06:33:08;;;;;;;0.10;0.10;;;;;;;2.05;100.00;98726.94;5000368;28;20225;-62
2022/12/05 06:35:35;;;;;;;0.00;0.00;;;;;;;2.00;100.00;98736.69;4984174;28;20283;-62
2022/12/05 06:38:02;;;;;;;0.10;0.10;;;;;;;1.99;100.00;98732.47;4985292;28;20228;-62
2022/12/05 06:40:29;;;;;;;0.00;0.00;;;;;;;1.98;100.00;98730.00;4986102;28;20229;-62
2022/12/05 06:42:58;;;;;;;0.10;0.10;;;;;;;1.96;100.00;98731.84;4981501;28;20232;-62
2022/12/05 06:45:25;;;;;;;0.10;0.10;;;;;;;1.96;100.00;98735.22;4986087;28;20287;-62
2022/12/05 06:47:52;;;;;;;0.00;0.00;;;;;;;1.98;100.00;98725.66;4983096;28;20689;-62
2022/12/05 06:50:20;;;;;;;0.00;0.00;;;;;;;2.02;100.00;98736.59;4986298;28;20287;-62
2022/12/05 06:52:47;;;;;;;0.10;0.10;;;;;;;1.99;100.00;98740.19;4983995;28;20237;-62
2022/12/05 06:55:13;;;;;;;0.10;0.10;;;;;;;2.01;100.00;98740.09;4985761;28;20282;-62
2022/12/05 06:57:40;;;;;;;0.00;0.00;;;;;;;1.99;100.00;98753.06;4998495;28;20229;-63
2022/12/05 07:02:53;;;;;;;0.00;0.00;;;;;;;2.20;100.00;98744.94;4982697;28;20236;-63
2022/12/05 07:05:20;;;;;;;0.00;0.00;;;;;;;2.13;100.00;98748.81;4986385;28;20307;-63
2022/12/05 07:07:55;;;;;;;0.10;0.10;;;;;;;2.15;100.00;98747.78;4983805;28;20229;-65
2022/12/05 07:10:21;;;;;;;0.10;0.10;;;;;;;2.18;100.00;98752.75;4985536;28;20232;-63
2022/12/05 07:12:48;;;;;;;0.10;0.10;;;;;;;2.21;100.00;98744.84;4981581;28;20236;-63
2022/12/05 07:15:14;;;;;;;0.00;0.00;;;;;;;2.24;100.00;98756.72;4984051;28;20256;-63
2022/12/05 07:17:41;;;;;;;0.00;0.00;;;;;;;2.22;100.00;98750.81;4997482;28;20236;-65
2022/12/05 07:20:09;;;;;;;0.10;0.10;;;;;;;2.27;100.00;98760.84;4984514;28;20228;-63
2022/12/05 07:22:37;;;;;;;0.00;0.00;;;;;;;2.26;100.00;98765.16;4982619;28;20253;-63
2022/12/05 07:25:04;;;;;;;0.00;0.00;;;;;;;2.26;100.00;98762.59;4985100;28;20255;-63
2022/12/05 07:27:31;;;;;;;0.00;0.00;;;;;;;2.32;100.00;98769.09;4984583;28;20247;-63
2022/12/05 07:29:57;;;;;;;0.00;0.00;;;;;;;2.29;100.00;98772.72;4983028;28;20237;-63
2022/12/05 07:32:24;;;;;;;0.00;0.00;;;;;;;2.33;100.00;98781.06;4985442;28;20233;-63
2022/12/05 07:34:51;;;;;;;0.10;0.10;;;;;;;2.43;100.00;98784.72;4982124;28;20283;-63
2022/12/05 07:37:17;;;;;;;0.10;0.10;;;;;;;2.42;100.00;98782.25;4984974;28;20248;-63
2022/12/05 07:39:45;;;;;;;0.00;0.00;;;;;;;2.46;100.00;98783.72;4982756;28;20320;-63
2022/12/05 07:42:12;;;;;;;0.10;0.10;;;;;;;2.48;100.00;98787.84;4985196;28;20232;-63
2022/12/05 07:44:38;;;;;;;0.00;0.00;;;;;;;2.54;100.00;98790.97;4982971;28;20231;-63
2022/12/05 07:47:07;;;;;;;0.10;0.10;;;;;;;2.57;100.00;98794.19;4984780;28;20229;-63
2022/12/05 07:49:34;;;;;;;0.00;0.00;;;;;;;2.64;100.00;98798.03;4983548;28;20623;-63
2022/12/05 07:52:03;;;;;;;0.00;0.00;;;;;;;2.62;100.00;98796.47;4984982;28;20620;-63
2022/12/05 07:54:29;;;;;;;0.00;0.00;;;;;;;2.63;100.00;98798.97;4984917;28;20248;-63
2022/12/05 07:56:57;;;;;;;0.00;0.00;;;;;;;2.73;100.00;98803.50;4982574;28;20286;-63
2022/12/05 07:59:24;;;;;;;0.00;0.00;;;;;;;2.70;100.00;98801.97;4985080;28;20880;-62
2022/12/05 08:01:50;;;;;;;0.10;0.10;;;;;;;2.74;100.00;98800.00;4982633;28;20252;-63
2022/12/05 08:04:17;;;;;;;0.00;0.00;;;;;;;2.72;100.00;98805.28;4984706;28;20237;-63
2022/12/05 08:06:44;;;;;;;0.10;0.10;;;;;;;2.79;100.00;98797.97;4982692;28;20778;-63
2022/12/05 08:09:10;;;;;;;0.00;0.00;;;;;;;2.87;100.00;98807.81;4984717;28;20244;-63
2022/12/05 08:11:37;;;;;;;0.00;0.00;;;;;;;2.88;100.00;98804.31;4982819;28;20643;-63
2022/12/05 08:14:06;;;;;;;0.10;0.10;;;;;;;2.98;100.00;98812.28;4984034;28;20695;-63
2022/12/05 08:16:33;;;;;;;0.00;0.00;;;;;;;3.04;100.00;98817.91;4973921;28;20225;-63
2022/12/05 08:19:01;;;;;;;0.10;0.10;;;;;;;3.15;100.00;98811.22;4983411;28;20247;-63
2022/12/05 08:21:28;;;;;;;0.10;0.10;;;;;;;3.28;100.00;98812.06;4985218;28;20241;-63
2022/12/05 08:23:56;;;;;;;0.00;0.00;;;;;;;3.22;100.00;98802.13;4982159;28;20233;-63
2022/12/05 08:26:24;;;;;;;0.10;0.10;;;;;;;3.22;100.00;98807.28;4985038;28;20345;-63
2022/12/05 08:28:52;;;;;;;0.00;0.00;;;;;;;3.27;100.00;98810.41;4981588;28;20229;-64
2022/12/05 08:31:22;;;;;;;0.03;0.03;;;;;;;3.31;100.00;98808.47;4983693;28;20671;-63
2022/12/05 08:33:49;;;;;;;0.00;0.00;;;;;;;3.36;100.00;98809.00;4982743;28;20275;-63
2022/12/05 08:36:16;;;;;;;0.00;0.00;;;;;;;3.39;100.00;98812.19;4984793;28;20233;-63
2022/12/05 08:38:43;;;;;;;0.00;0.00;;;;;;;3.38;100.00;98825.19;4982535;28;20635;-63
2022/12/05 08:41:12;;;;;;;0.07;0.07;;;;;;;3.42;100.00;98833.56;4984571;28;20232;-63
2022/12/05 08:43:39;;;;;;;0.00;0.00;;;;;;;3.44;100.00;98837.72;4982371;28;20279;-63
2022/12/05 08:46:06;;;;;;;0.10;0.10;;;;;;;3.37;100.00;98826.94;4983925;28;20237;-63
2022/12/05 08:48:35;;;;;;;0.00;0.00;;;;;;;3.39;100.00;98834.59;4972276;28;20247;-63
2022/12/05 08:51:06;;;;;;;0.00;0.00;;;;;;;3.45;100.00;98835.94;4985977;28;20233;-63
2022/12/05 08:53:32;;;;;;;0.00;0.00;;;;;;;3.42;100.00;98843.88;4986695;28;20229;-63
2022/12/05 08:56:01;;;;;;;0.10;0.10;;;;;;;3.50;100.00;98845.03;4984217;28;20244;-63
2022/12/05 08:58:28;;;;;;;0.00;0.00;;;;;;;3.42;100.00;98839.56;4988412;28;20268;-63
2022/12/05 09:00:55;;;;;;;0.00;0.00;;;;;;;3.40;100.00;98837.06;4985209;28;20245;-63
2022/12/05 09:03:21;;;;;;;0.00;0.00;;;;;;;3.55;100.00;98839.56;4988158;28;20810;-63
2022/12/05 09:05:49;;;;;;;0.00;0.00;;;;;;;3.61;100.00;98846.91;4985320;28;20283;-63
2022/12/05 09:08:16;;;;;;;0.07;0.07;;;;;;;3.74;100.00;98848.69;4987144;28;20300;-63
2022/12/05 09:10:42;;;;;;;0.00;0.00;;;;;;;3.91;100.00;98860.47;4985678;28;20229;-63
2022/12/05 09:13:09;;;;;;;0.10;0.10;;;;;;;3.89;100.00;98863.16;4986958;28;20221;-63
2022/12/05 09:15:38;;;;;;;0.00;0.00;;;;;;;4.03;100.00;98869.97;4998960;28;20240;-63
2022/12/05 09:18:08;;;;;;;0.03;0.03;;;;;;;4.11;100.00;98880.63;4988036;28;20228;-64
2022/12/05 09:20:34;;;;;;;0.03;0.03;;;;;;;4.09;100.00;98885.06;4985879;28;20243;-63
2022/12/05 09:23:02;;;;;;;0.00;0.00;;;;;;;4.25;100.00;98891.78;4987343;28;21162;-64
2022/12/05 09:25:29;;;;;;;0.10;0.10;;;;;;;4.30;100.00;98894.88;4987936;28;20240;-63
2022/12/05 09:27:55;;;;;;;0.10;0.10;;;;;;;4.36;100.00;98899.66;4985141;28;20237;-63
2022/12/05 09:30:22;;;;;;;0.00;0.00;;;;;;;4.50;100.00;98890.13;4986802;28;20320;-63
2022/12/05 09:32:49;;;;;;;0.00;0.00;;;;;;;4.61;100.00;98891.94;4976440;28;20237;-64
2022/12/05 09:35:15;;;;;;;0.00;0.00;;;;;;;4.76;100.00;98893.47;4987045;28;20241;-63
2022/12/05 09:37:42;;;;;;;0.00;0.00;;;;;;;4.76;100.00;98906.41;4985321;28;20228;-64
2022/12/05 09:40:17;;;;;;;0.00;0.00;;;;;;;4.76;100.00;98915.94;4987216;28;20240;-64
2022/12/05 09:42:57;;;;;;;0.00;0.00;;;;;;;4.60;100.00;98913.56;4984718;28;20225;-63
2022/12/05 09:45:26;;;;;;;0.10;0.10;;;;;;;4.64;100.00;98909.84;4987352;28;20228;-63
2022/12/05 09:47:59;;;;;;;0.07;0.07;;;;;;;4.64;100.00;98904.66;4983890;28;20302;-64
2022/12/05 09:50:30;;;;;;;0.00;0.00;;;;;;;4.65;100.00;98896.81;4987404;28;20312;-64
2022/12/05 09:53:12;;;;;;;0.07;0.07;;;;;;;4.63;100.00;98890.94;4983583;28;20759;-64
2022/12/05 09:55:49;;;;;;;0.00;0.00;;;;;;;4.70;100.00;98896.50;4984122;28;20227;-64
2022/12/05 09:58:21;;;;;;;0.00;0.00;;;;;;;4.54;100.00;98894.97;4986541;28;20236;-64
2022/12/05 10:00:51;;;;;;;0.10;0.10;;;;;;;4.52;100.00;98894.25;4975217;28;20228;-64
2022/12/05 10:03:25;;;;;;;0.00;0.00;;;;;;;4.50;100.00;98896.09;4976100;28;20229;-64
2022/12/05 10:06:05;;;;;;;0.00;0.00;;;;;;;4.45;100.00;98898.19;4982230;28;20242;-63
2022/12/05 10:08:38;;;;;;;0.00;0.00;;;;;;;4.38;100.00;98894.34;4984283;28;20228;-63
2022/12/05 10:11:14;;;;;;;0.07;0.07;;;;;;;4.33;100.00;98901.59;4983649;28;20628;-63
2022/12/05 10:13:50;;;;;;;0.10;0.10;;;;;;;4.40;100.00;98895.91;4984420;28;20235;-63
2022/12/05 10:16:21;;;;;;;0.00;0.00;;;;;;;4.49;100.00;98888.47;4986075;28;20588;-64
2022/12/05 10:18:57;;;;;;;0.10;0.10;;;;;;;4.57;100.00;98888.78;4983687;28;20265;-64
2022/12/05 10:21:28;;;;;;;0.00;0.00;;;;;;;4.69;100.00;98882.75;4985543;28;20601;-64
2022/12/05 10:23:58;;;;;;;0.00;0.00;;;;;;;4.57;100.00;98875.84;4983072;28;20225;-62
2022/12/05 10:26:29;;;;;;;0.10;0.10;;;;;;;4.80;100.00;98879.41;4986590;28;20313;-64
2022/12/05 10:28:59;;;;;;;0.03;0.03;;;;;;;4.86;100.00;98876.38;4983933;28;20232;-64
2022/12/05 10:31:30;;;;;;;0.10;0.10;;;;;;;4.85;100.00;98877.31;4985134;28;20243;-64
2022/12/05 10:34:03;;;;;;;0.10;0.10;;;;;;;4.99;100.00;98883.28;4983122;28;20720;-64
2022/12/05 10:36:30;;;;;;;0.10;0.10;;;;;;;5.10;100.00;98880.75;4986623;28;20228;-64
2022/12/05 10:38:59;;;;;;;0.00;0.00;;;;;;;5.52;100.00;98879.50;4982706;28;20320;-64
2022/12/05 10:41:27;;;;;;;0.10;0.10;;;;;;;5.78;100.00;98887.97;4985979;28;20236;-64
2022/12/05 10:43:58;;;;;;;0.00;0.00;;;;;;;6.10;100.00;98884.75;4982163;28;20311;-62
2022/12/05 10:46:26;;;;;;;0.00;0.00;;;;;;;6.32;100.00;98890.91;4985830;28;20740;-62
2022/12/05 10:48:52;;;;;;;0.10;0.10;;;;;;;6.55;100.00;98883.94;4982919;28;20237;-63
2022/12/05 10:51:26;;;;;;;0.00;0.00;;;;;;;6.74;100.00;98898.94;4986297;28;20233;-63
2022/12/05 10:53:53;;;;;;;0.00;0.00;;;;;;;6.65;97.85;98894.44;4980698;28;20288;-64
2022/12/05 10:56:39;;;;;;;0.00;0.00;;;;;;;6.70;96.48;98888.88;4985832;28;20229;-64
2022/12/05 10:59:08;;;;;;;0.00;0.00;;;;;;;6.79;97.12;98885.56;4982857;28;20704;-64
2022/12/05 11:01:36;;;;;;;0.00;0.00;;;;;;;6.83;98.00;98886.19;4982463;28;20237;-64
2022/12/05 11:04:13;;;;;;;0.00;0.00;;;;;;;6.77;96.42;98884.88;4984955;28;20229;-64
2022/12/05 11:06:50;;;;;;;0.00;0.00;;;;;;;6.85;97.57;98876.50;4983044;28;20236;-64
2022/12/05 11:09:20;;;;;;;0.00;0.00;;;;;;;6.84;96.02;98880.84;4985172;28;20247;-64
2022/12/05 11:12:03;;;;;;;0.00;0.00;;;;;;;6.68;97.04;98878.66;4983109;28;20578;-64
2022/12/05 11:14:30;;;;;;;0.00;0.00;;;;;;;6.57;97.41;98879.47;4972888;28;20229;-64
2022/12/05 11:16:58;;;;;;;0.00;0.00;;;;;;;6.53;96.50;98880.63;4974560;28;20237;-64
2022/12/05 11:19:28;;;;;;;0.00;0.00;;;;;;;6.44;97.47;98868.38;4977906;28;20237;-64
2022/12/05 11:21:56;;;;;;;0.00;0.00;;;;;;;6.44;98.45;98878.75;4976567;28;20245;-64
2022/12/05 11:24:26;;;;;;;0.03;0.03;;;;;;;6.40;98.69;98879.94;4979238;28;20228;-64
2022/12/05 11:26:55;;;;;;;0.07;0.07;;;;;;;6.42;98.48;98880.63;4976558;28;20747;-63
2022/12/05 11:29:33;;;;;;;0.00;0.00;;;;;;;6.44;96.54;98882.19;4979251;28;20249;-63
2022/12/05 11:32:00;;;;;;;0.00;0.00;;;;;;;6.44;96.43;98881.34;4975686;28;20299;-63
2022/12/05 11:34:33;;;;;;;0.00;0.00;;;;;;;6.40;98.02;98883.38;4977960;28;20231;-63
2022/12/05 11:37:04;;;;;;;0.00;0.00;;;;;;;6.27;98.72;98883.50;4983695;28;20248;-64
2022/12/05 11:39:32;;;;;;;0.00;0.00;;;;;;;6.29;100.00;98881.59;4977877;28;20234;-63
2022/12/05 11:42:13;;;;;;;0.00;0.00;;;;;;;6.17;100.00;98880.75;4915479;28;20246;-63
2022/12/05 11:45:21;;;;;;;0.03;0.03;;;;;;;5.88;100.00;98891.50;4952853;28;20723;-64
2022/12/05 11:47:58;;;;;;;0.10;0.10;;;;;;;5.72;100.00;98880.66;4971147;28;20242;-64
2022/12/05 11:50:36;;;;;;;0.00;0.00;;;;;;;5.64;100.00;98886.38;4977564;28;20243;-63
2022/12/05 11:53:17;;;;;;;0.03;0.03;;;;;;;5.62;100.00;98875.31;4972102;28;20240;-64
2022/12/05 11:55:51;;;;;;;0.00;0.00;;;;;;;5.75;100.00;98885.63;4976126;28;20754;-63
2022/12/05 11:59:00;;;;;;;0.10;0.10;;;;;;;5.88;100.00;98872.56;4975147;28;20252;-64
2022/12/05 12:01:41;;;;;;;0.00;0.00;;;;;;;5.87;100.00;98870.91;4978073;28;20259;-64